Time;durP1;ratioP1;P1;durP2;ratioP2;P2;SDS_P1;SDS_P2;PMS_P1;PMS_P2;Temp;Humidity;BMP_temperature;BMP_pressure;BME280_temperature;BME280_humidity;BME280_pressure;Samples;Min_cycle;Max_cycle;Signal;HPM_P1;HPM_P2
2022/12/01 00:02:20;;;;;;;56.88;28.95;;;;;;;;;;5075060;28;20200;-63
2022/12/01 00:04:48;;;;;;;60.53;27.23;;;;;;;;;;5075025;28;20201;-64
2022/12/01 00:07:15;;;;;;;56.47;27.65;;;;;;;;;;5074727;28;20218;-63
2022/12/01 00:12:27;;;;;;;52.38;26.80;;;;;;;;;;5074924;28;20207;-63
2022/12/01 00:14:59;;;;;;;52.88;26.02;;;;;;;;;;5074897;28;20201;-63
2022/12/01 00:17:26;;;;;;;59.28;28.17;;;;;;;;;;5074621;28;20190;-63
2022/12/01 00:19:53;;;;;;;59.28;26.63;;;;;;;;;;5074897;28;20195;-63
2022/12/01 00:22:20;;;;;;;58.92;29.05;;;;;;;;;;5074809;28;20191;-63
2022/12/01 00:24:48;;;;;;;69.13;29.77;;;;;;;;;;5074755;28;20665;-63
2022/12/01 00:27:15;;;;;;;58.42;27.73;;;;;;;;;;5074563;28;20232;-63
2022/12/01 00:29:42;;;;;;;59.10;27.30;;;;;;;;;;5074662;28;20193;-63
2022/12/01 00:32:09;;;;;;;53.17;26.15;;;;;;;;;;5074311;28;20600;-63
2022/12/01 00:34:37;;;;;;;58.05;30.25;;;;;;;;;;5074512;28;20190;-63
2022/12/01 00:37:03;;;;;;;51.15;25.73;;;;;;;;;;5074581;28;20207;-63
2022/12/01 00:39:30;;;;;;;59.30;28.20;;;;;;;;;;5073909;28;20277;-63
2022/12/01 00:41:59;;;;;;;56.83;27.05;;;;;;;;;;5074322;28;20277;-63
2022/12/01 00:44:25;;;;;;;52.13;25.75;;;;;;;;;;5074178;28;20680;-63
2022/12/01 00:46:52;;;;;;;59.08;26.02;;;;;;;;;;5073785;28;20230;-63
2022/12/01 00:49:19;;;;;;;58.05;26.20;;;;;;;;;;5074291;28;20193;-63
2022/12/01 00:51:46;;;;;;;63.38;26.50;;;;;;;;;;5074172;28;20273;-63
2022/12/01 00:54:13;;;;;;;57.70;27.75;;;;;;;;;;5074102;28;20186;-63
2022/12/01 00:56:40;;;;;;;53.17;26.60;;;;;;;;;;5073949;28;20552;-63
2022/12/01 00:59:08;;;;;;;55.67;27.75;;;;;;;;;;5073856;28;20190;-63
2022/12/01 01:01:35;;;;;;;54.65;26.85;;;;;;;;;;5074070;28;20208;-63
2022/12/01 01:04:02;;;;;;;62.45;26.98;;;;;;;;;;5073997;28;20190;-63
2022/12/01 01:06:29;;;;;;;61.13;29.52;;;;;;;;;;5073827;28;20249;-63
2022/12/01 01:08:56;;;;;;;50.65;27.88;;;;;;;;;;5073796;28;20684;-63
2022/12/01 01:11:23;;;;;;;55.85;26.98;;;;;;;;;;5073679;28;20196;-63
2022/12/01 01:13:50;;;;;;;57.05;27.35;;;;;;;;;;5073650;28;20735;-63
2022/12/01 01:16:19;;;;;;;57.75;26.85;;;;;;;;;;5073736;28;20236;-63
2022/12/01 01:18:46;;;;;;;57.63;27.75;;;;;;;;;;5073645;28;20284;-63
2022/12/01 01:21:14;;;;;;;67.03;29.23;;;;;;;;;;5073598;28;20645;-63
2022/12/01 01:23:41;;;;;;;60.20;26.15;;;;;;;;;;5073629;28;20285;-63
2022/12/01 01:26:09;;;;;;;61.70;26.45;;;;;;;;;;5073292;28;20211;-63
2022/12/01 01:28:36;;;;;;;61.65;28.33;;;;;;;;;;5073515;28;20531;-63
2022/12/01 01:31:05;;;;;;;60.22;26.10;;;;;;;;;;5073461;28;20271;-63
2022/12/01 01:33:33;;;;;;;51.85;25.95;;;;;;;;;;5073390;28;20194;-63
2022/12/01 01:36:00;;;;;;;60.08;27.63;;;;;;;;;;5073314;28;20194;-62
2022/12/01 01:38:27;;;;;;;57.35;26.88;;;;;;;;;;5073210;28;20286;-63
2022/12/01 01:40:55;;;;;;;58.47;26.02;;;;;;;;;;5073185;28;20277;-63
2022/12/01 01:43:36;;;;;;;63.97;27.55;;;;;;;;;;5073320;28;20186;-63
2022/12/01 01:46:03;;;;;;;65.78;29.60;;;;;;;;;;5073177;28;20204;-63
2022/12/01 01:48:30;;;;;;;59.20;29.23;;;;;;;;;;5072999;28;20315;-63
2022/12/01 01:50:59;;;;;;;63.20;29.52;;;;;;;;;;5071710;28;20187;-63
2022/12/01 01:53:26;;;;;;;67.05;29.05;;;;;;;;;;5072861;28;20195;-63
2022/12/01 01:55:52;;;;;;;63.08;28.50;;;;;;;;;;5073456;28;20286;-63
2022/12/01 01:58:20;;;;;;;61.58;28.33;;;;;;;;;;5073184;28;20195;-63
2022/12/01 02:00:47;;;;;;;58.92;28.50;;;;;;;;;;5072971;28;20202;-63
2022/12/01 02:03:16;;;;;;;60.33;28.17;;;;;;;;;;5072982;28;20190;-63
2022/12/01 02:05:44;;;;;;;68.18;28.27;;;;;;;;;;5072857;28;20195;-63
2022/12/01 02:08:12;;;;;;;56.35;26.85;;;;;;;;;;5072918;28;20222;-63
2022/12/01 02:10:46;;;;;;;84.15;31.70;;;;;;;;;;5072988;28;20305;-63
2022/12/01 02:13:17;;;;;;;60.03;26.77;;;;;;;;;;5073025;28;20193;-63
2022/12/01 02:15:46;;;;;;;68.93;28.15;;;;;;;;;;5072931;28;20614;-63
2022/12/01 02:18:20;;;;;;;60.88;27.05;;;;;;;;;;5072855;28;20295;-63
2022/12/01 02:20:59;;;;;;;63.33;28.75;;;;;;;;;;5073221;28;20199;-63
2022/12/01 02:23:38;;;;;;;63.58;28.90;;;;;;;;;;5072903;28;20203;-63
2022/12/01 02:26:16;;;;;;;64.00;29.10;;;;;;;;;;5072726;28;20278;-63
2022/12/01 02:28:52;;;;;;;60.25;28.15;;;;;;;;;;5072656;28;20289;-63
2022/12/01 02:31:23;;;;;;;56.10;26.88;;;;;;;;;;5072938;28;20255;-63
2022/12/01 02:33:53;;;;;;;65.63;28.30;;;;;;;;;;5072835;28;20186;-63
2022/12/01 02:36:22;;;;;;;61.97;28.85;;;;;;;;;;5072850;28;20287;-63
2022/12/01 02:38:52;;;;;;;61.70;29.10;;;;;;;;;;5072799;28;20281;-63
2022/12/01 02:41:20;;;;;;;68.78;29.45;;;;;;;;;;5072752;28;20200;-63
2022/12/01 02:43:52;;;;;;;63.72;29.55;;;;;;;;;;5072766;28;20620;-63
2022/12/01 02:46:23;;;;;;;73.38;30.40;;;;;;;;;;5072661;28;20557;-63
2022/12/01 02:48:51;;;;;;;67.68;30.02;;;;;;;;;;5072575;28;20190;-62
2022/12/01 02:51:20;;;;;;;67.63;29.40;;;;;;;;;;5072668;28;20186;-63
2022/12/01 02:53:47;;;;;;;62.08;30.50;;;;;;;;;;5072902;28;20196;-63
2022/12/01 02:56:15;;;;;;;64.70;29.55;;;;;;;;;;5072613;28;20285;-63
2022/12/01 02:58:42;;;;;;;66.75;31.25;;;;;;;;;;5072535;28;20217;-63
2022/12/01 03:01:18;;;;;;;70.10;31.45;;;;;;;;;;5072616;28;20281;-63
2022/12/01 03:03:56;;;;;;;63.10;30.40;;;;;;;;;;5074860;28;20189;-62
2022/12/01 03:06:28;;;;;;;59.90;30.00;;;;;;;;;;5076278;28;20537;-63
2022/12/01 03:09:01;;;;;;;74.10;32.60;;;;;;;;;;5075995;28;20721;-63
2022/12/01 03:11:34;;;;;;;74.47;32.10;;;;;;;;;;5076181;28;20196;-63
2022/12/01 03:14:08;;;;;;;67.72;31.17;;;;;;;;;;5076074;28;20225;-63
2022/12/01 03:16:39;;;;;;;68.78;30.60;;;;;;;;;;5075958;28;20193;-63
2022/12/01 03:19:09;;;;;;;71.15;31.55;;;;;;;;;;5076091;28;20198;-63
2022/12/01 03:21:39;;;;;;;66.75;32.72;;;;;;;;;;5075942;28;20194;-63
2022/12/01 03:24:09;;;;;;;63.00;30.60;;;;;;;;;;5075872;28;20200;-63
2022/12/01 03:26:38;;;;;;;74.82;31.67;;;;;;;;;;5075690;28;20233;-62
2022/12/01 03:29:07;;;;;;;69.18;33.10;;;;;;;;;;5075620;28;20535;-63
2022/12/01 03:31:39;;;;;;;68.93;30.15;;;;;;;;;;5075847;28;20190;-63
2022/12/01 03:34:10;;;;;;;66.78;32.28;;;;;;;;;;5075755;28;20593;-63
2022/12/01 03:36:40;;;;;;;63.67;30.02;;;;;;;;;;5075630;28;20191;-63
2022/12/01 03:39:09;;;;;;;62.40;29.10;;;;;;;;;;5075712;28;20192;-62
2022/12/01 03:41:40;;;;;;;63.47;29.85;;;;;;;;;;5075412;28;20197;-63
2022/12/01 03:44:09;;;;;;;63.20;30.80;;;;;;;;;;5075642;28;20189;-63
2022/12/01 03:46:43;;;;;;;65.88;30.40;;;;;;;;;;5075350;28;20186;-62
2022/12/01 03:49:12;;;;;;;61.88;28.92;;;;;;;;;;5075396;28;20195;-62
2022/12/01 03:51:42;;;;;;;68.43;30.15;;;;;;;;;;5075339;28;20191;-63
2022/12/01 03:54:12;;;;;;;63.53;31.83;;;;;;;;;;5075105;28;20228;-63
2022/12/01 03:56:42;;;;;;;60.17;30.52;;;;;;;;;;5075410;28;20191;-63
2022/12/01 03:59:10;;;;;;;60.35;28.08;;;;;;;;;;5075310;28;20194;-63
2022/12/01 04:01:37;;;;;;;68.57;30.55;;;;;;;;;;5075159;28;20273;-63
2022/12/01 04:04:05;;;;;;;69.53;32.35;;;;;;;;;;5075093;28;20235;-63
2022/12/01 04:06:33;;;;;;;61.33;28.98;;;;;;;;;;5074998;28;20687;-63
2022/12/01 04:09:00;;;;;;;58.88;30.45;;;;;;;;;;5074777;28;20218;-63
2022/12/01 04:14:12;;;;;;;66.20;30.48;;;;;;;;;;5074107;28;20301;-63
2022/12/01 04:16:39;;;;;;;62.80;30.52;;;;;;;;;;5074872;28;20197;-63
2022/12/01 04:19:06;;;;;;;64.28;29.92;;;;;;;;;;5074733;28;20198;-63
2022/12/01 04:21:34;;;;;;;63.20;32.10;;;;;;;;;;5074882;28;20290;-63
2022/12/01 04:24:01;;;;;;;61.78;32.85;;;;;;;;;;5074664;28;20195;-63
2022/12/01 04:26:28;;;;;;;69.90;32.03;;;;;;;;;;5074568;28;20198;-63
2022/12/01 04:28:55;;;;;;;56.22;30.05;;;;;;;;;;5074362;28;20704;-63
2022/12/01 04:31:22;;;;;;;61.85;31.95;;;;;;;;;;5074667;28;20248;-63
2022/12/01 04:33:49;;;;;;;68.65;32.45;;;;;;;;;;5074344;28;20664;-63
2022/12/01 04:36:16;;;;;;;67.03;32.60;;;;;;;;;;5074605;28;20195;-63
2022/12/01 04:38:44;;;;;;;55.63;29.38;;;;;;;;;;5074405;28;20277;-63
2022/12/01 04:41:11;;;;;;;64.60;33.05;;;;;;;;;;5074391;28;20642;-63
2022/12/01 04:43:38;;;;;;;63.88;31.73;;;;;;;;;;5074331;28;20212;-63
2022/12/01 04:46:06;;;;;;;58.72;31.33;;;;;;;;;;5074205;28;20286;-63
2022/12/01 04:48:34;;;;;;;63.33;32.65;;;;;;;;;;5073844;28;20233;-63
2022/12/01 04:51:01;;;;;;;61.58;29.95;;;;;;;;;;5074273;28;20194;-63
2022/12/01 04:53:28;;;;;;;58.90;29.77;;;;;;;;;;5074119;28;20192;-63
2022/12/01 04:55:56;;;;;;;66.70;30.75;;;;;;;;;;5074088;28;20280;-63
2022/12/01 04:58:23;;;;;;;66.18;32.13;;;;;;;;;;5073950;28;20289;-63
2022/12/01 05:00:50;;;;;;;59.05;29.48;;;;;;;;;;5073778;28;20198;-63
2022/12/01 05:03:18;;;;;;;66.50;32.63;;;;;;;;;;5074845;28;20194;-63
2022/12/01 05:05:45;;;;;;;63.97;32.95;;;;;;;;;;5074799;28;20201;-63
2022/12/01 05:08:12;;;;;;;78.75;35.25;;;;;;;;;;5074845;28;20245;-63
2022/12/01 05:10:40;;;;;;;62.08;31.77;;;;;;;;;;5075117;28;20646;-63
2022/12/01 05:13:09;;;;;;;71.07;33.20;;;;;;;;;;5074740;28;20286;-63
2022/12/01 05:15:36;;;;;;;71.25;35.00;;;;;;;;;;5074912;28;20190;-63
2022/12/01 05:18:05;;;;;;;63.85;31.17;;;;;;;;;;5075158;28;20229;-63
2022/12/01 05:23:17;;;;;;;68.13;31.38;;;;;;;;;;5074733;28;20216;-63
2022/12/01 05:25:45;;;;;;;73.22;32.83;;;;;;;;;;5074633;28;20193;-63
2022/12/01 05:28:13;;;;;;;75.72;36.00;;;;;;;;;;5074669;28;20685;-63
2022/12/01 05:30:41;;;;;;;70.38;33.70;;;;;;;;;;5074245;28;20213;-63
2022/12/01 05:33:08;;;;;;;71.72;33.40;;;;;;;;;;5074802;28;20735;-63
2022/12/01 05:35:36;;;;;;;74.40;34.53;;;;;;;;;;5074009;28;20585;-62
2022/12/01 05:38:03;;;;;;;76.22;34.15;;;;;;;;;;5073954;28;20190;-63
2022/12/01 05:40:30;;;;;;;77.13;33.17;;;;;;;;;;5073878;28;20683;-63
2022/12/01 05:43:00;;;;;;;72.80;34.25;;;;;;;;;;5074374;28;20205;-63
2022/12/01 05:45:29;;;;;;;62.25;31.60;;;;;;;;;;5074357;28;20205;-63
2022/12/01 05:47:56;;;;;;;67.68;34.30;;;;;;;;;;5073817;28;20232;-63
2022/12/01 05:50:24;;;;;;;67.13;33.28;;;;;;;;;;5073967;28;20236;-63
2022/12/01 05:52:51;;;;;;;66.05;30.70;;;;;;;;;;5073696;28;20211;-63
2022/12/01 05:55:18;;;;;;;65.22;32.70;;;;;;;;;;5073969;28;20265;-63
2022/12/01 05:57:47;;;;;;;68.47;29.83;;;;;;;;;;5074248;28;20195;-63
2022/12/01 06:00:17;;;;;;;60.55;32.08;;;;;;;;;;5073817;28;20692;-63
2022/12/01 06:02:46;;;;;;;62.70;32.40;;;;;;;;;;5073957;28;20243;-62
2022/12/01 06:05:13;;;;;;;67.53;30.90;;;;;;;;;;5073892;28;20186;-64
2022/12/01 06:07:40;;;;;;;67.30;31.58;;;;;;;;;;5073717;28;20242;-63
2022/12/01 06:10:09;;;;;;;64.45;31.45;;;;;;;;;;5074345;28;20190;-63
2022/12/01 06:12:36;;;;;;;62.10;31.70;;;;;;;;;;5073940;28;20569;-64
2022/12/01 06:15:04;;;;;;;65.63;32.72;;;;;;;;;;5074018;28;20197;-63
2022/12/01 06:17:32;;;;;;;74.25;35.45;;;;;;;;;;5073521;28;20248;-63
2022/12/01 06:20:01;;;;;;;70.32;34.28;;;;;;;;;;5074210;28;20198;-63
2022/12/01 06:22:31;;;;;;;62.42;32.92;;;;;;;;;;5073858;28;20654;-63
2022/12/01 06:24:59;;;;;;;70.25;33.55;;;;;;;;;;5073781;28;20190;-63
2022/12/01 06:27:27;;;;;;;59.25;31.58;;;;;;;;;;5073829;28;20195;-63
2022/12/01 06:29:55;;;;;;;71.95;34.88;;;;;;;;;;5074042;28;20201;-63
2022/12/01 06:32:22;;;;;;;71.40;35.00;;;;;;;;;;5073656;28;20212;-63
2022/12/01 06:34:49;;;;;;;72.07;33.58;;;;;;;;;;5074324;28;20222;-63
2022/12/01 06:37:18;;;;;;;67.55;33.72;;;;;;;;;;5073907;28;20553;-63
2022/12/01 06:39:45;;;;;;;65.05;34.90;;;;;;;;;;5078241;28;20217;-63
2022/12/01 06:42:16;;;;;;;76.70;34.50;;;;;;;;;;5078381;28;20190;-63
2022/12/01 06:44:43;;;;;;;73.32;34.15;;;;;;;;;;5078037;28;20221;-63
2022/12/01 06:47:10;;;;;;;65.68;33.42;;;;;;;;;;5077811;28;20700;-63
2022/12/01 06:49:37;;;;;;;75.45;34.00;;;;;;;;;;5077815;28;20226;-63
2022/12/01 06:52:05;;;;;;;67.90;33.45;;;;;;;;;;5077444;28;20200;-63
2022/12/01 06:54:35;;;;;;;72.68;33.75;;;;;;;;;;5077272;28;20561;-63
2022/12/01 06:57:03;;;;;;;74.95;34.22;;;;;;;;;;5077926;28;20189;-63
2022/12/01 06:59:30;;;;;;;70.43;33.78;;;;;;;;;;5077757;28;20621;-63
2022/12/01 07:01:57;;;;;;;68.15;34.75;;;;;;;;;;5077978;28;20189;-63
2022/12/01 07:04:24;;;;;;;72.22;35.33;;;;;;;;;;5077278;28;20553;-63
2022/12/01 07:06:51;;;;;;;80.22;36.47;;;;;;;;;;5077598;28;20607;-63
2022/12/01 07:09:18;;;;;;;77.55;36.38;;;;;;;;;;5077311;28;20218;-63
2022/12/01 07:11:47;;;;;;;84.03;38.00;;;;;;;;;;5077538;28;20546;-62
2022/12/01 07:14:19;;;;;;;79.80;36.38;;;;;;;;;;5077352;28;20247;-63
2022/12/01 07:16:47;;;;;;;79.00;36.50;;;;;;;;;;5077438;28;20224;-63
2022/12/01 07:19:14;;;;;;;83.35;37.70;;;;;;;;;;5076997;28;20195;-62
2022/12/01 07:21:41;;;;;;;80.60;36.80;;;;;;;;;;5077335;28;20208;-63
2022/12/01 07:24:09;;;;;;;84.72;39.25;;;;;;;;;;5077379;28;20246;-63
2022/12/01 07:26:36;;;;;;;90.63;40.05;;;;;;;;;;5077194;28;20190;-63
2022/12/01 07:29:04;;;;;;;83.50;37.28;;;;;;;;;;5077242;28;20284;-63
2022/12/01 07:31:32;;;;;;;98.70;39.88;;;;;;;;;;5076997;28;20194;-63
2022/12/01 07:33:59;;;;;;;91.05;42.25;;;;;;;;;;5077347;28;20213;-63
2022/12/01 07:36:26;;;;;;;94.97;39.17;;;;;;;;;;5077218;28;20190;-63
2022/12/01 07:38:53;;;;;;;100.80;43.13;;;;;;;;;;5076886;28;20201;-63
2022/12/01 07:41:20;;;;;;;108.13;41.92;;;;;;;;;;5076950;28;20196;-63
2022/12/01 07:43:48;;;;;;;101.65;42.60;;;;;;;;;;5076341;28;20224;-63
2022/12/01 07:46:18;;;;;;;115.55;45.58;;;;;;;;;;5077221;28;20190;-63
2022/12/01 07:48:45;;;;;;;109.68;45.97;;;;;;;;;;5076137;28;20226;-63
2022/12/01 07:51:16;;;;;;;102.65;43.40;;;;;;;;;;5076169;28;20276;-63
2022/12/01 07:53:43;;;;;;;102.63;42.92;;;;;;;;;;5076509;28;20529;-63
2022/12/01 07:56:10;;;;;;;105.55;43.08;;;;;;;;;;5076731;28;20189;-63
2022/12/01 07:58:39;;;;;;;107.75;42.33;;;;;;;;;;5076989;28;20228;-63
2022/12/01 08:01:07;;;;;;;111.00;45.17;;;;;;;;;;5076670;28;20243;-63
2022/12/01 08:03:52;;;;;;;102.15;41.08;;;;;;;;;;5076724;28;20190;-63
2022/12/01 08:06:22;;;;;;;101.75;44.10;;;;;;;;;;5076473;28;20197;-63
2022/12/01 08:08:50;;;;;;;99.43;44.45;;;;;;;;;;5075956;28;20253;-64
2022/12/01 08:11:18;;;;;;;106.05;44.70;;;;;;;;;;5076484;28;20553;-63
2022/12/01 08:13:46;;;;;;;108.13;43.13;;;;;;;;;;5075767;28;20198;-63
2022/12/01 08:16:14;;;;;;;106.68;44.67;;;;;;;;;;5074727;28;20274;-62
2022/12/01 08:18:42;;;;;;;103.95;45.67;;;;;;;;;;5076405;28;20191;-62
2022/12/01 08:21:11;;;;;;;114.00;53.25;;;;;;;;;;5079518;28;20454;-64
2022/12/01 08:23:40;;;;;;;101.40;45.38;;;;;;;;;;5082356;28;20560;-64
2022/12/01 08:26:09;;;;;;;106.68;43.17;;;;;;;;;;5092475;28;20200;-65
2022/12/01 08:28:36;;;;;;;107.35;47.38;;;;;;;;;;5095512;28;20212;-60
2022/12/01 08:31:07;;;;;;;108.93;44.35;;;;;;;;;;5095328;28;20587;-60
2022/12/01 08:33:34;;;;;;;111.45;44.35;;;;;;;;;;5087957;28;20198;-62
2022/12/01 08:36:02;;;;;;;108.82;47.15;;;;;;;;;;5082909;28;20276;-61
2022/12/01 08:38:29;;;;;;;108.18;45.03;;;;;;;;;;5075811;28;20187;-63
2022/12/01 08:41:00;;;;;;;104.00;42.67;;;;;;;;;;5091070;28;20240;-65
2022/12/01 08:43:28;;;;;;;98.25;42.78;;;;;;;;;;5095514;28;20196;-65
2022/12/01 08:45:58;;;;;;;104.03;43.15;;;;;;;;;;5095204;28;20188;-65
2022/12/01 08:48:28;;;;;;;102.30;45.25;;;;;;;;;;5095207;28;20229;-66
2022/12/01 08:51:01;;;;;;;107.15;43.88;;;;;;;;;;5090896;28;20194;-62
2022/12/01 08:53:28;;;;;;;102.45;46.20;;;;;;;;;;5095906;28;20664;-60
2022/12/01 08:55:55;;;;;;;100.78;44.97;;;;;;;;;;5095580;28;20641;-61
2022/12/01 08:58:25;;;;;;;98.95;42.35;;;;;;;;;;5083304;28;20223;-63
2022/12/01 09:00:52;;;;;;;116.75;45.72;;;;;;;;;;5078594;28;20258;-61
2022/12/01 09:03:19;;;;;;;101.82;43.15;;;;;;;;;;5093180;28;20221;-61
2022/12/01 09:05:46;;;;;;;102.68;42.70;;;;;;;;;;5079197;28;20189;-59
2022/12/01 09:08:32;;;;;;;100.90;44.85;;;;;;;;;;5092485;28;20318;-59
2022/12/01 09:11:00;;;;;;;95.68;44.53;;;;;;;;;;5088008;28;20182;-57
2022/12/01 09:13:29;;;;;;;107.07;47.75;;;;;;;;;;5074826;28;20660;-58
2022/12/01 09:15:57;;;;;;;104.05;41.72;;;;;;;;;;5074715;28;20190;-61
2022/12/01 09:18:24;;;;;;;105.60;44.30;;;;;;;;;;5074572;28;20189;-59
2022/12/01 09:20:52;;;;;;;94.90;44.42;;;;;;;;;;5074559;28;20280;-59
2022/12/01 09:23:19;;;;;;;95.65;41.80;;;;;;;;;;5082667;28;20721;-59
2022/12/01 09:25:46;;;;;;;90.18;43.80;;;;;;;;;;5094918;28;20191;-60
2022/12/01 09:28:13;;;;;;;100.80;43.85;;;;;;;;;;5083233;28;20255;-64
2022/12/01 09:30:42;;;;;;;93.72;41.88;;;;;;;;;;5088833;28;20189;-57
2022/12/01 09:33:09;;;;;;;95.35;41.15;;;;;;;;;;5091257;28;20643;-58
2022/12/01 09:35:36;;;;;;;94.18;44.53;;;;;;;;;;5093868;28;20190;-55
2022/12/01 09:38:03;;;;;;;92.53;42.35;;;;;;;;;;5094056;28;20189;-59
2022/12/01 09:40:32;;;;;;;96.38;44.90;;;;;;;;;;5094771;28;20288;-60
2022/12/01 09:43:00;;;;;;;95.55;41.97;;;;;;;;;;5094294;28;20259;-59
2022/12/01 09:45:29;;;;;;;98.15;43.53;;;;;;;;;;5094145;28;20185;-59
2022/12/01 09:48:00;;;;;;;93.13;46.47;;;;;;;;;;5094308;28;20225;-59
2022/12/01 09:50:28;;;;;;;94.75;44.10;;;;;;;;;;5093990;28;20278;-56
2022/12/01 09:52:58;;;;;;;98.20;42.28;;;;;;;;;;5094064;28;20216;-58
2022/12/01 09:55:26;;;;;;;82.40;39.83;;;;;;;;;;5093989;28;20224;-58
2022/12/01 09:57:54;;;;;;;94.93;43.90;;;;;;;;;;5093655;28;20196;-58
2022/12/01 10:00:22;;;;;;;86.38;41.13;;;;;;;;;;5094490;28;20572;-59
2022/12/01 10:02:51;;;;;;;91.63;41.22;;;;;;;;;;5093893;28;20250;-58
2022/12/01 10:05:21;;;;;;;88.50;40.90;;;;;;;;;;5093986;28;20599;-58
2022/12/01 10:07:49;;;;;;;87.97;41.47;;;;;;;;;;5094106;28;20221;-59
2022/12/01 10:10:21;;;;;;;91.28;42.35;;;;;;;;;;5094174;28;20213;-58
2022/12/01 10:12:48;;;;;;;85.88;42.47;;;;;;;;;;5093055;28;20711;-57
2022/12/01 10:15:18;;;;;;;81.32;39.22;;;;;;;;;;5093947;28;20314;-56
2022/12/01 10:17:50;;;;;;;83.15;39.72;;;;;;;;;;5094346;28;20185;-58
2022/12/01 10:20:20;;;;;;;91.97;41.25;;;;;;;;;;5093522;28;20515;-58
2022/12/01 10:22:55;;;;;;;80.13;39.47;;;;;;;;;;5093980;28;20195;-58
2022/12/01 10:25:23;;;;;;;72.65;38.65;;;;;;;;;;5093764;28;20189;-59
2022/12/01 10:27:56;;;;;;;74.97;37.08;;;;;;;;;;5093513;28;20190;-57
2022/12/01 10:30:25;;;;;;;75.72;37.42;;;;;;;;;;5093650;28;20250;-59
2022/12/01 10:32:53;;;;;;;82.15;40.00;;;;;;;;;;5093557;28;20190;-58
2022/12/01 10:35:22;;;;;;;80.93;38.15;;;;;;;;;;5093478;28;20197;-59
2022/12/01 10:37:52;;;;;;;76.55;38.63;;;;;;;;;;5093417;28;20197;-58
2022/12/01 10:40:21;;;;;;;70.00;36.17;;;;;;;;;;5093473;28;20686;-58
2022/12/01 10:42:49;;;;;;;66.25;33.30;;;;;;;;;;5093336;28;20678;-57
2022/12/01 10:45:18;;;;;;;58.83;34.03;;;;;;;;;;5093647;28;20189;-57
2022/12/01 10:48:04;;;;;;;58.95;32.88;;;;;;;;;;5093089;28;20222;-57
2022/12/01 10:50:31;;;;;;;65.22;32.63;;;;;;;;;;5092846;28;20223;-58
2022/12/01 10:52:58;;;;;;;64.97;33.47;;;;;;;;;;5092715;28;20250;-57
2022/12/01 10:55:27;;;;;;;54.83;31.13;;;;;;;;;;5093280;28;20194;-58
2022/12/01 10:57:55;;;;;;;59.75;32.80;;;;;;;;;;5093144;28;20254;-56
2022/12/01 11:00:24;;;;;;;55.35;30.10;;;;;;;;;;5092883;28;20351;-58
2022/12/01 11:02:51;;;;;;;60.60;34.20;;;;;;;;;;5092817;28;20194;-57
2022/12/01 11:05:21;;;;;;;67.88;36.45;;;;;;;;;;5092771;28;20565;-58
2022/12/01 11:07:48;;;;;;;64.72;33.78;;;;;;;;;;5092801;28;20191;-58
2022/12/01 11:10:17;;;;;;;60.13;34.35;;;;;;;;;;5093059;28;20306;-58
2022/12/01 11:12:46;;;;;;;57.15;32.85;;;;;;;;;;5093863;28;20598;-58
2022/12/01 11:15:22;;;;;;;62.85;33.42;;;;;;;;;;5093353;28;20663;-58
2022/12/01 11:17:49;;;;;;;63.30;32.63;;;;;;;;;;5092852;28;20197;-58
2022/12/01 11:20:26;;;;;;;59.15;33.38;;;;;;;;;;5093149;28;20190;-58
2022/12/01 11:22:53;;;;;;;59.92;32.88;;;;;;;;;;5093134;28;20197;-57
2022/12/01 11:25:21;;;;;;;63.78;33.95;;;;;;;;;;5096621;28;20548;-58
2022/12/01 11:27:53;;;;;;;62.72;33.28;;;;;;;;;;5096699;28;20234;-58
2022/12/01 11:30:23;;;;;;;71.00;35.92;;;;;;;;;;5095952;28;20213;-57
2022/12/01 11:32:52;;;;;;;59.65;32.05;;;;;;;;;;5097134;28;20194;-58
2022/12/01 11:35:21;;;;;;;56.95;31.80;;;;;;;;;;5096454;28;20185;-58
2022/12/01 11:37:50;;;;;;;59.92;32.58;;;;;;;;;;5095830;28;20196;-58
2022/12/01 11:40:17;;;;;;;60.10;33.45;;;;;;;;;;5089770;28;21042;-64
2022/12/01 11:42:47;;;;;;;56.55;31.40;;;;;;;;;;5075394;28;20189;-61
2022/12/01 11:45:24;;;;;;;56.10;30.80;;;;;;;;;;5089805;28;20185;-62
2022/12/01 11:48:02;;;;;;;65.07;33.95;;;;;;;;;;5094563;28;20688;-60
2022/12/01 11:50:30;;;;;;;65.07;33.88;;;;;;;;;;5075455;28;20229;-60
2022/12/01 11:52:57;;;;;;;54.22;30.30;;;;;;;;;;5088727;28;20254;-59
2022/12/01 11:55:25;;;;;;;59.22;33.53;;;;;;;;;;5084293;28;20552;-59
2022/12/01 11:57:54;;;;;;;61.28;33.35;;;;;;;;;;5093330;28;20656;-59
2022/12/01 12:00:23;;;;;;;55.78;30.98;;;;;;;;;;5096290;28;20218;-65
2022/12/01 12:02:59;;;;;;;56.47;31.75;;;;;;;;;;5076453;28;20558;-64
2022/12/01 12:05:45;;;;;;;57.85;32.00;;;;;;;;;;5075747;28;20197;-64
2022/12/01 12:08:17;;;;;;;65.25;33.10;;;;;;;;;;5074320;28;20198;-61
2022/12/01 12:10:48;;;;;;;67.72;32.67;;;;;;;;;;5086946;28;20245;-60
2022/12/01 12:13:25;;;;;;;60.05;33.00;;;;;;;;;;5078682;28;20674;-60
2022/12/01 12:15:58;;;;;;;58.25;33.33;;;;;;;;;;5082801;28;20646;-59
2022/12/01 12:18:35;;;;;;;57.83;33.17;;;;;;;;;;5095499;28;20554;-61
2022/12/01 12:21:06;;;;;;;52.42;31.08;;;;;;;;;;5076496;28;20276;-61
2022/12/01 12:23:52;;;;;;;57.35;33.15;;;;;;;;;;5080770;28;20186;-61
2022/12/01 12:26:20;;;;;;;54.60;29.60;;;;;;;;;;5084271;28;20185;-60
2022/12/01 12:28:55;;;;;;;61.15;31.85;;;;;;;;;;5085297;28;20194;-58
2022/12/01 12:31:28;;;;;;;62.15;34.22;;;;;;;;;;5078159;28;20257;-60
2022/12/01 12:34:13;;;;;;;63.10;32.63;;;;;;;;;;5074847;28;20197;-60
2022/12/01 12:36:44;;;;;;;56.88;31.77;;;;;;;;;;5090543;28;20583;-61
2022/12/01 12:39:20;;;;;;;59.45;32.38;;;;;;;;;;5081546;28;20191;-64
2022/12/01 12:41:49;;;;;;;59.75;31.98;;;;;;;;;;5075636;28;20196;-63
2022/12/01 12:44:23;;;;;;;66.47;34.47;;;;;;;;;;5075636;28;20191;-61
2022/12/01 12:46:58;;;;;;;58.50;30.48;;;;;;;;;;5078746;28;20252;-64
2022/12/01 12:49:30;;;;;;;62.55;33.78;;;;;;;;;;5104959;28;20188;-63
2022/12/01 12:51:59;;;;;;;49.90;29.75;;;;;;;;;;5073538;28;20198;-62
2022/12/01 12:54:30;;;;;;;54.47;30.70;;;;;;;;;;5081665;28;20189;-62
2022/12/01 12:57:01;;;;;;;59.10;32.40;;;;;;;;;;5077107;28;20194;-59
2022/12/01 12:59:31;;;;;;;51.92;29.50;;;;;;;;;;5073512;28;20277;-58
2022/12/01 13:02:01;;;;;;;49.83;29.17;;;;;;;;;;5073943;28;20208;-60
2022/12/01 13:04:32;;;;;;;54.80;30.00;;;;;;;;;;5077524;28;20191;-65
2022/12/01 13:07:02;;;;;;;48.58;29.23;;;;;;;;;;5073720;28;20185;-59
2022/12/01 13:09:31;;;;;;;48.72;28.58;;;;;;;;;;5076282;28;20195;-59
2022/12/01 13:12:01;;;;;;;49.45;28.88;;;;;;;;;;5074378;28;20186;-59
2022/12/01 13:14:32;;;;;;;46.97;28.02;;;;;;;;;;5087302;28;20206;-61
2022/12/01 13:17:08;;;;;;;58.05;30.83;;;;;;;;;;5078073;28;20625;-60
2022/12/01 13:19:36;;;;;;;48.47;27.88;;;;;;;;;;5075746;28;20202;-57
2022/12/01 13:22:05;;;;;;;52.42;29.17;;;;;;;;;;5074808;28;20250;-56
2022/12/01 13:24:33;;;;;;;49.53;27.33;;;;;;;;;;5074162;28;20634;-65
2022/12/01 13:27:01;;;;;;;53.53;28.17;;;;;;;;;;5073834;28;20622;-65
2022/12/01 13:29:30;;;;;;;48.40;28.75;;;;;;;;;;5074034;28;20278;-61
2022/12/01 13:31:57;;;;;;;50.25;27.98;;;;;;;;;;5074757;28;20579;-62
2022/12/01 13:34:28;;;;;;;51.30;31.23;;;;;;;;;;5072958;28;20211;-60
2022/12/01 13:36:56;;;;;;;49.85;27.60;;;;;;;;;;5073386;28;20196;-64
2022/12/01 13:39:24;;;;;;;50.60;27.83;;;;;;;;;;5077267;28;20332;-65
2022/12/01 13:42:02;;;;;;;51.15;28.40;;;;;;;;;;5073971;28;20194;-63
2022/12/01 13:44:31;;;;;;;45.72;26.33;;;;;;;;;;5073129;28;20237;-64
2022/12/01 13:46:59;;;;;;;53.35;27.13;;;;;;;;;;5076443;28;20682;-63
2022/12/01 13:49:35;;;;;;;52.50;28.92;;;;;;;;;;5077164;28;20531;-65
2022/12/01 13:52:21;;;;;;;46.88;29.10;;;;;;;;;;5077359;28;20199;-64
2022/12/01 13:55:00;;;;;;;52.38;30.17;;;;;;;;;;5074781;28;20187;-62
2022/12/01 13:57:28;;;;;;;46.20;27.75;;;;;;;;;;5080279;28;20654;-60
2022/12/01 14:00:21;;;;;;;45.28;27.95;;;;;;;;;;5073557;28;20193;-60
2022/12/01 14:03:07;;;;;;;49.47;26.42;;;;;;;;;;5073660;28;20200;-60
2022/12/01 14:05:46;;;;;;;45.95;27.27;;;;;;;;;;5072914;28;20195;-60
2022/12/01 14:08:14;;;;;;;45.35;26.60;;;;;;;;;;5084691;28;20651;-60
2022/12/01 14:10:41;;;;;;;47.80;27.77;;;;;;;;;;5093452;28;20226;-61
2022/12/01 14:13:17;;;;;;;43.30;26.52;;;;;;;;;;5092541;28;20198;-63
2022/12/01 14:15:44;;;;;;;44.88;25.73;;;;;;;;;;5079907;28;20665;-61
2022/12/01 14:18:25;;;;;;;51.15;28.55;;;;;;;;;;5076274;28;20222;-60
2022/12/01 14:20:54;;;;;;;44.90;25.90;;;;;;;;;;5072932;28;20241;-60
2022/12/01 14:23:23;;;;;;;41.80;25.50;;;;;;;;;;5072952;28;20646;-60
2022/12/01 14:25:58;;;;;;;45.95;28.50;;;;;;;;;;5087251;28;20198;-60
2022/12/01 14:28:40;;;;;;;50.30;28.58;;;;;;;;;;5074566;28;20227;-71
2022/12/01 14:31:07;;;;;;;47.30;26.02;;;;;;;;;;5072065;28;20245;-65
2022/12/01 14:33:45;;;;;;;44.28;27.70;;;;;;;;;;5075725;28;20194;-63
2022/12/01 14:36:19;;;;;;;46.95;26.30;;;;;;;;;;5073549;28;20192;-64
2022/12/01 14:38:47;;;;;;;43.13;25.88;;;;;;;;;;5072490;28;20190;-62